Time;durP1;ratioP1;P1;durP2;ratioP2;P2;SDS_P1;SDS_P2;PMS_P1;PMS_P2;Temp;Humidity;BMP_temperature;BMP_pressure;BME280_temperature;BME280_humidity;BME280_pressure;Samples;Min_cycle;Max_cycle;Signal;HPM_P1;HPM_P2
2020/12/13 00:01:32;;;;;;;42.20;29.75;;;;;;;3.46;80.35;93628.56;1774644;80;21564;-54
2020/12/13 00:04:00;;;;;;;47.35;31.25;;;;;;;3.42;80.28;93628.65;1742662;82;21163;-53
2020/12/13 00:06:32;;;;;;;48.85;31.68;;;;;;;3.41;80.30;93626.38;1774645;80;22747;-53
2020/12/13 00:09:01;;;;;;;43.87;28.12;;;;;;;3.44;80.40;93631.70;1709031;83;21169;-53
2020/12/13 00:11:29;;;;;;;40.43;27.62;;;;;;;3.47;80.35;93628.15;1751645;82;21063;-54
2020/12/13 00:13:58;;;;;;;43.10;27.77;;;;;;;3.50;80.10;93632.11;1721833;83;21511;-52
2020/12/13 00:16:26;;;;;;;45.43;29.67;;;;;;;3.53;79.95;93633.97;1749797;82;21064;-54
2020/12/13 00:18:55;;;;;;;46.02;29.65;;;;;;;3.49;79.76;93636.02;1749796;82;21377;-54
2020/12/13 00:21:26;;;;;;;49.25;31.85;;;;;;;3.48;80.09;93635.69;1749723;82;21568;-54
2020/12/13 00:23:55;;;;;;;43.10;29.52;;;;;;;3.47;79.92;93639.60;1749780;82;21092;-53
2020/12/13 00:26:24;;;;;;;45.92;29.42;;;;;;;3.43;79.91;93632.14;1749765;82;21150;-53
2020/12/13 00:28:52;;;;;;;52.38;32.75;;;;;;;3.38;80.01;93631.31;1749710;82;21162;-53
2020/12/13 00:31:21;;;;;;;51.73;31.85;;;;;;;3.37;80.17;93633.26;1749738;82;21389;-53
2020/12/13 00:33:49;;;;;;;54.70;33.45;;;;;;;3.40;80.05;93643.87;1749685;82;21096;-54
2020/12/13 00:36:18;;;;;;;57.30;33.50;;;;;;;3.41;80.19;93642.08;1749863;82;21505;-54
2020/12/13 00:38:47;;;;;;;57.95;33.13;;;;;;;3.44;80.35;93637.13;1749856;81;21477;-54
2020/12/13 00:41:15;;;;;;;55.28;33.85;;;;;;;3.49;80.37;93638.74;1749775;82;21084;-54
2020/12/13 00:43:43;;;;;;;52.88;33.05;;;;;;;3.52;80.10;93632.44;1749759;81;21218;-54
2020/12/13 00:46:12;;;;;;;54.77;33.25;;;;;;;3.52;79.99;93633.05;1749707;82;21151;-54
2020/12/13 00:48:41;;;;;;;59.98;37.53;;;;;;;3.51;79.91;93634.99;1749781;82;21607;-54
2020/12/13 00:51:09;;;;;;;58.63;36.55;;;;;;;3.52;79.80;93633.05;1749848;82;21508;-54
2020/12/13 00:53:38;;;;;;;56.42;35.92;;;;;;;3.49;79.77;93632.56;1749788;82;21087;-53
2020/12/13 00:56:07;;;;;;;63.83;35.52;;;;;;;3.50;80.25;93634.08;1749783;82;22219;-54
2020/12/13 00:58:35;;;;;;;61.23;36.08;;;;;;;3.48;79.92;93626.34;1749804;82;21090;-54
2020/12/13 01:01:04;;;;;;;64.55;35.78;;;;;;;3.48;80.12;93637.05;1726636;82;21568;-53
2020/12/13 01:03:32;;;;;;;67.92;37.75;;;;;;;3.47;79.86;93634.95;1749716;82;21728;-54
2020/12/13 01:06:01;;;;;;;64.35;36.23;;;;;;;3.46;80.08;93632.64;1749772;82;21154;-52
2020/12/13 01:08:29;;;;;;;69.82;37.78;;;;;;;3.48;79.95;93634.50;1750590;81;23551;-53
2020/12/13 01:10:57;;;;;;;79.70;40.28;;;;;;;3.49;80.02;93637.38;1758288;81;21075;-54
2020/12/13 01:13:26;;;;;;;105.20;47.35;;;;;;;3.51;79.77;93631.53;1758264;81;21477;-54
2020/12/13 01:15:55;;;;;;;107.20;50.33;;;;;;;3.42;79.72;93634.70;1729733;83;21153;-55
2020/12/13 01:18:23;;;;;;;113.50;51.70;;;;;;;3.39;80.13;93627.41;1700611;84;21132;-53
2020/12/13 01:20:51;;;;;;;96.65;47.55;;;;;;;3.37;79.98;93631.90;1729748;83;21547;-53
2020/12/13 01:23:21;;;;;;;79.35;43.83;;;;;;;3.38;79.99;93627.98;1729777;83;21593;-53
2020/12/13 01:25:50;;;;;;;73.57;40.63;;;;;;;3.38;79.86;93626.63;1674404;84;21065;-53
2020/12/13 01:28:18;;;;;;;73.50;38.17;;;;;;;3.37;80.16;93624.33;1729736;83;21606;-53
2020/12/13 01:30:46;;;;;;;61.60;33.60;;;;;;;3.40;80.22;93622.88;1729766;83;21482;-54
2020/12/13 01:33:15;;;;;;;66.12;35.50;;;;;;;3.47;80.22;93625.43;1700567;84;21477;-53
2020/12/13 01:35:43;;;;;;;65.37;34.95;;;;;;;3.52;80.07;93631.08;1729680;83;21125;-54
2020/12/13 01:38:12;;;;;;;64.72;36.38;;;;;;;3.52;79.68;93628.98;1729711;83;21130;-54
2020/12/13 01:40:43;;;;;;;69.62;37.40;;;;;;;3.48;79.70;93627.70;1700536;84;21136;-54
2020/12/13 01:43:12;;;;;;;56.60;34.15;;;;;;;3.46;79.51;93621.16;1729838;83;21503;-54
2020/12/13 01:45:40;;;;;;;56.28;33.35;;;;;;;3.41;79.54;93622.30;1729843;83;22277;-53
2020/12/13 01:48:08;;;;;;;56.53;33.45;;;;;;;3.37;79.73;93631.90;1729713;83;21490;-53
2020/12/13 01:53:14;;;;;;;63.60;32.20;;;;;;;3.35;80.10;93618.55;1729788;83;21495;-54
2020/12/13 01:55:44;;;;;;;61.95;34.63;;;;;;;3.38;80.04;93622.55;1700660;84;21524;-54
2020/12/13 01:58:28;;;;;;;62.75;34.90;;;;;;;3.40;79.81;93619.41;1735560;82;21237;-53
2020/12/13 02:00:58;;;;;;;64.17;34.83;;;;;;;3.39;79.73;93616.53;1735421;82;21085;-53
2020/12/13 02:03:37;;;;;;;67.12;36.17;;;;;;;3.36;79.94;93624.94;1735572;82;21472;-54
2020/12/13 02:06:12;;;;;;;62.98;35.45;;;;;;;3.36;79.87;93620.08;1735473;82;21093;-52
2020/12/13 02:08:41;;;;;;;51.55;31.02;;;;;;;3.30;79.89;93617.73;1737444;81;21151;-53
2020/12/13 02:11:10;;;;;;;43.05;26.57;;;;;;;3.27;80.01;93619.95;1774561;80;21215;-54
2020/12/13 02:13:38;;;;;;;40.83;24.95;;;;;;;3.26;80.08;93625.22;1742455;82;21105;-54
2020/12/13 02:16:08;;;;;;;39.42;24.65;;;;;;;3.24;80.08;93630.31;1774513;80;21496;-54
2020/12/13 02:18:37;;;;;;;37.45;22.95;;;;;;;3.22;80.10;93628.02;1742605;82;21079;-53
2020/12/13 02:21:05;;;;;;;38.83;23.95;;;;;;;3.19;80.06;93622.66;1774567;80;21139;-53
2020/12/13 02:23:33;;;;;;;45.92;26.82;;;;;;;3.12;80.17;93623.63;1742621;82;21577;-54
2020/12/13 02:26:01;;;;;;;74.55;37.67;;;;;;;3.08;80.50;93618.86;1774546;80;21616;-53
2020/12/13 02:28:30;;;;;;;65.12;34.33;;;;;;;3.13;80.70;93622.44;1742458;81;21411;-53
2020/12/13 02:30:59;;;;;;;63.48;35.63;;;;;;;3.17;80.65;93618.25;1774543;80;21040;-53
2020/12/13 02:33:27;;;;;;;77.08;41.28;;;;;;;3.18;80.53;93618.42;1692609;82;21477;-52
2020/12/13 02:35:56;;;;;;;70.87;38.23;;;;;;;3.18;80.55;93615.13;1774551;80;22050;-53
2020/12/13 02:38:25;;;;;;;60.33;35.20;;;;;;;3.22;80.70;93617.76;1742593;82;21619;-53
2020/12/13 02:40:55;;;;;;;49.85;29.20;;;;;;;3.27;80.47;93616.62;1774526;80;21119;-54
2020/12/13 02:43:23;;;;;;;38.00;26.02;;;;;;;3.27;80.55;93615.26;1742622;82;21583;-53
2020/12/13 02:45:53;;;;;;;36.15;23.47;;;;;;;3.30;80.55;93613.65;1774549;80;21119;-53
2020/12/13 02:48:21;;;;;;;33.73;23.55;;;;;;;3.33;80.30;93612.80;1742594;82;22350;-54
2020/12/13 02:50:50;;;;;;;34.13;23.45;;;;;;;3.30;80.21;93610.94;1774492;80;21064;-54
2020/12/13 02:53:19;;;;;;;44.00;26.00;;;;;;;3.30;80.33;93631.31;1742502;82;21057;-53
2020/12/13 02:55:48;;;;;;;45.52;27.82;;;;;;;3.28;80.11;93622.83;1774635;80;21191;-53
2020/12/13 02:58:16;;;;;;;49.33;27.42;;;;;;;3.20;80.24;93627.68;1742797;82;21492;-53
2020/12/13 03:00:45;;;;;;;42.98;26.27;;;;;;;3.19;80.33;93622.66;1774701;80;22359;-53
2020/12/13 03:03:13;;;;;;;47.15;28.17;;;;;;;3.13;80.33;93617.00;1742693;82;21127;-53
2020/12/13 03:05:42;;;;;;;47.25;27.35;;;;;;;3.12;80.66;93628.29;1774676;80;21128;-53
2020/12/13 03:08:10;;;;;;;57.85;31.50;;;;;;;3.17;80.91;93625.82;1742613;82;21084;-52
2020/12/13 03:10:40;;;;;;;55.40;32.50;;;;;;;3.24;80.42;93626.24;1774540;80;21048;-54
2020/12/13 03:13:09;;;;;;;54.38;31.27;;;;;;;3.19;80.33;93626.16;1742755;82;22265;-54
2020/12/13 03:15:37;;;;;;;55.08;31.23;;;;;;;3.18;80.55;93629.29;1774632;80;21084;-54
2020/12/13 03:18:06;;;;;;;45.45;28.98;;;;;;;3.22;80.70;93628.63;1742637;82;21486;-53
2020/12/13 03:20:35;;;;;;;47.78;26.73;;;;;;;3.26;80.58;93632.02;1774668;80;21140;-53
2020/12/13 03:23:03;;;;;;;53.83;30.43;;;;;;;3.25;80.60;93631.23;1742689;82;21161;-53
2020/12/13 03:25:32;;;;;;;41.68;26.30;;;;;;;3.28;80.46;93626.30;1774713;80;21378;-53
2020/12/13 03:28:00;;;;;;;44.80;26.33;;;;;;;3.29;80.51;93633.28;1742578;81;21516;-53
2020/12/13 03:30:28;;;;;;;49.30;27.62;;;;;;;3.37;80.47;93629.77;1774631;80;21052;-53
2020/12/13 03:32:57;;;;;;;41.75;25.35;;;;;;;3.39;80.09;93643.10;1742743;82;21516;-53
2020/12/13 03:35:25;;;;;;;39.10;24.37;;;;;;;3.34;79.97;93630.63;1774743;80;21580;-53
2020/12/13 03:37:54;;;;;;;34.40;21.60;;;;;;;3.29;80.03;93637.36;1742633;82;21171;-53
2020/12/13 03:40:22;;;;;;;31.80;21.97;;;;;;;3.28;80.19;93634.45;1774593;80;21147;-53
2020/12/13 03:42:51;;;;;;;29.37;20.65;;;;;;;3.29;80.05;93643.38;1742654;82;21589;-53
2020/12/13 03:45:19;;;;;;;33.53;21.97;;;;;;;3.26;79.96;93631.40;1774674;80;21489;-54
2020/12/13 03:47:50;;;;;;;36.33;23.67;;;;;;;3.25;79.99;93637.28;1742648;82;21095;-52
2020/12/13 03:50:18;;;;;;;34.70;22.75;;;;;;;3.24;80.03;93639.22;1774697;80;23716;-53
2020/12/13 03:52:47;;;;;;;34.88;22.90;;;;;;;3.25;80.28;93634.56;1742575;82;21085;-53
2020/12/13 03:55:15;;;;;;;30.72;20.08;;;;;;;3.27;80.17;93633.53;1774747;80;21470;-53
2020/12/13 03:57:44;;;;;;;39.45;24.00;;;;;;;3.26;80.08;93635.47;1742689;82;21582;-53
2020/12/13 04:00:12;;;;;;;40.30;24.02;;;;;;;3.25;80.05;93634.56;1774613;80;21560;-53
2020/12/13 04:02:41;;;;;;;33.65;22.80;;;;;;;3.27;80.27;93634.28;1742727;82;22322;-53
2020/12/13 04:05:09;;;;;;;38.75;23.98;;;;;;;3.33;80.37;93634.53;1774572;80;21958;-53
2020/12/13 04:07:37;;;;;;;40.65;26.33;;;;;;;3.39;80.16;93634.20;1742695;82;21072;-53
2020/12/13 04:10:06;;;;;;;42.48;26.97;;;;;;;3.39;80.23;93631.48;1774447;80;21071;-53
2020/12/13 04:12:35;;;;;;;37.75;25.00;;;;;;;3.41;79.94;93637.25;1742630;82;21536;-53
2020/12/13 04:15:03;;;;;;;37.38;24.18;;;;;;;3.37;79.81;93633.84;1774712;80;22301;-53
2020/12/13 04:17:32;;;;;;;33.95;23.52;;;;;;;3.31;79.87;93634.20;1742583;82;21123;-53
2020/12/13 04:20:01;;;;;;;35.80;22.58;;;;;;;3.33;80.20;93628.52;1774629;80;21071;-53
2020/12/13 04:22:29;;;;;;;34.48;23.47;;;;;;;3.41;80.08;93629.84;1742622;82;21060;-53
2020/12/13 04:24:57;;;;;;;35.50;23.98;;;;;;;3.41;79.86;93637.25;1774648;80;21072;-53
2020/12/13 04:27:26;;;;;;;38.60;23.92;;;;;;;3.42;79.84;93640.13;1742560;82;22344;-53
2020/12/13 04:29:54;;;;;;;47.10;25.62;;;;;;;3.41;79.78;93638.00;1774560;80;22007;-53
2020/12/13 04:32:22;;;;;;;48.55;26.07;;;;;;;3.40;79.65;93640.55;1742682;82;21557;-53
2020/12/13 04:34:51;;;;;;;50.33;27.15;;;;;;;3.36;79.64;93633.67;1774616;80;21599;-53
2020/12/13 04:37:23;;;;;;;50.08;28.45;;;;;;;3.36;79.56;93639.11;1742733;82;21481;-53
2020/12/13 04:39:52;;;;;;;44.55;25.70;;;;;;;3.36;79.81;93635.81;1777089;80;21501;-53
2020/12/13 04:42:24;;;;;;;41.08;26.27;;;;;;;3.38;79.89;93628.59;1774592;80;21080;-54
2020/12/13 04:44:52;;;;;;;37.67;24.17;;;;;;;3.43;79.92;93631.53;1742951;82;21580;-53
2020/12/13 04:47:21;;;;;;;38.55;26.05;;;;;;;3.42;79.55;93625.19;1774578;80;22051;-53
2020/12/13 04:49:50;;;;;;;37.23;25.25;;;;;;;3.36;79.75;93623.58;1708533;82;21082;-53
2020/12/13 04:52:19;;;;;;;40.03;26.80;;;;;;;3.35;79.59;93620.69;1761203;81;21157;-54
2020/12/13 04:54:51;;;;;;;35.80;23.42;;;;;;;3.35;79.87;93619.91;1734059;81;21076;-52
2020/12/13 04:57:19;;;;;;;38.60;25.65;;;;;;;3.41;80.03;93612.79;1774830;80;21076;-53
2020/12/13 04:59:49;;;;;;;40.40;27.22;;;;;;;3.48;79.89;93616.83;1742556;82;21100;-53
2020/12/13 05:02:17;;;;;;;42.43;26.90;;;;;;;3.51;79.60;93613.25;1774715;80;21059;-54
2020/12/13 05:04:46;;;;;;;49.00;27.67;;;;;;;3.50;79.61;93604.18;1742541;82;21386;-54
2020/12/13 05:07:19;;;;;;;47.93;27.58;;;;;;;3.48;79.53;93601.88;1774558;80;21595;-54
2020/12/13 05:09:52;;;;;;;80.03;45.92;;;;;;;3.48;79.51;93605.95;1741258;82;21576;-53
2020/12/13 05:12:24;;;;;;;64.58;36.70;;;;;;;3.51;79.44;93598.30;1751632;82;21072;-54
2020/12/13 05:14:54;;;;;;;54.88;33.73;;;;;;;3.46;79.28;93600.77;1721736;82;21134;-55
2020/12/13 05:17:24;;;;;;;48.20;29.85;;;;;;;3.35;79.49;93595.45;1749690;82;21393;-54
2020/12/13 05:19:52;;;;;;;43.13;27.80;;;;;;;3.27;79.64;93594.13;1703247;82;21178;-56
2020/12/13 05:22:21;;;;;;;48.28;30.77;;;;;;;3.23;79.77;93598.30;1749722;82;21503;-54
2020/12/13 05:24:50;;;;;;;51.48;31.05;;;;;;;3.17;79.94;93596.52;1749687;81;21096;-53
2020/12/13 05:27:23;;;;;;;41.80;27.32;;;;;;;3.16;80.11;93601.78;1749747;81;21080;-53
2020/12/13 05:29:54;;;;;;;46.83;29.72;;;;;;;3.20;80.32;93606.55;1749659;82;21399;-54
2020/12/13 05:32:24;;;;;;;45.92;30.12;;;;;;;3.23;80.24;93604.34;1749746;82;21186;-53
2020/12/13 05:34:52;;;;;;;41.23;28.32;;;;;;;3.23;80.18;93604.34;1749710;82;21191;-54
2020/12/13 05:37:21;;;;;;;43.42;28.83;;;;;;;3.18;80.15;93607.55;1749709;82;21553;-53
2020/12/13 05:39:51;;;;;;;40.60;28.27;;;;;;;3.14;80.29;93608.24;1749824;82;21493;-53
2020/12/13 05:42:33;;;;;;;44.75;30.27;;;;;;;3.09;80.33;93603.34;1780305;80;21187;-53
2020/12/13 05:48:13;;;;;;;47.05;30.95;;;;;;;3.15;80.80;93612.48;1780609;80;21190;-54
2020/12/13 05:52:50;;;;;;;66.72;36.85;;;;;;;3.03;80.88;93613.95;1780585;80;21587;-54
2020/12/13 05:55:18;;;;;;;55.40;32.90;;;;;;;3.01;80.96;93615.56;1756754;80;21440;-55
2020/12/13 05:57:49;;;;;;;57.30;35.85;;;;;;;3.00;81.12;93616.16;1780525;80;21087;-56
2020/12/13 06:00:17;;;;;;;58.58;37.58;;;;;;;2.96;81.08;93618.80;1780629;80;21063;-54
2020/12/13 06:02:46;;;;;;;76.97;42.27;;;;;;;2.99;81.63;93622.02;1780612;80;21564;-54
2020/12/13 06:05:15;;;;;;;86.35;48.63;;;;;;;3.10;81.60;93623.30;1780653;79;21135;-55
2020/12/13 06:07:50;;;;;;;95.57;53.45;;;;;;;3.20;81.59;93628.30;1780600;80;21454;-57
2020/12/13 06:10:24;;;;;;;96.87;54.33;;;;;;;3.31;81.53;93632.84;1779783;80;21266;-55
2020/12/13 06:13:04;;;;;;;93.80;54.03;;;;;;;3.43;81.17;93629.42;1774507;80;21128;-55
2020/12/13 06:15:34;;;;;;;72.05;42.25;;;;;;;3.45;80.82;93629.15;1742511;82;21152;-54
2020/12/13 06:18:04;;;;;;;82.67;50.58;;;;;;;3.46;80.52;93634.00;1774553;80;21091;-55
2020/12/13 06:20:33;;;;;;;102.47;57.30;;;;;;;3.43;80.56;93625.35;1742563;82;21380;-54
2020/12/13 06:23:01;;;;;;;91.87;53.13;;;;;;;3.45;80.58;93628.40;1774486;80;21151;-54
2020/12/13 06:25:31;;;;;;;78.95;48.40;;;;;;;3.48;80.43;93634.33;1715803;82;21056;-55
2020/12/13 06:28:00;;;;;;;78.92;46.65;;;;;;;3.43;80.28;93640.30;1774528;80;21071;-54
2020/12/13 06:30:29;;;;;;;100.15;60.65;;;;;;;3.38;80.29;93638.11;1708410;82;21158;-54
2020/12/13 06:32:58;;;;;;;81.60;50.23;;;;;;;3.28;80.47;93629.02;1787344;79;22106;-55
2020/12/13 06:35:26;;;;;;;103.62;61.05;;;;;;;3.25;80.59;93635.92;1737752;79;21064;-55
2020/12/13 06:37:55;;;;;;;110.90;62.55;;;;;;;3.19;80.62;93637.03;1815983;79;21088;-55
2020/12/13 06:40:25;;;;;;;108.97;63.10;;;;;;;3.15;80.71;93636.94;1815937;79;21112;-54
2020/12/13 06:42:54;;;;;;;89.75;58.30;;;;;;;3.12;80.93;93642.65;1787393;79;21551;-54
2020/12/13 06:45:23;;;;;;;82.50;53.05;;;;;;;3.11;81.19;93639.77;1762070;79;22271;-55
2020/12/13 06:47:53;;;;;;;56.73;35.83;;;;;;;3.12;81.20;93644.01;1738447;79;21123;-54
2020/12/13 06:50:24;;;;;;;55.08;37.33;;;;;;;3.12;81.13;93645.95;1815881;79;21167;-54
2020/12/13 06:52:54;;;;;;;55.98;37.17;;;;;;;3.07;81.19;93647.83;1815911;79;21108;-54
2020/12/13 06:55:33;;;;;;;51.70;34.20;;;;;;;3.04;81.27;93638.56;1815924;79;21532;-55
2020/12/13 06:58:01;;;;;;;52.65;36.42;;;;;;;3.05;81.22;93645.52;1815970;79;21202;-54
2020/12/13 07:00:47;;;;;;;55.10;38.85;;;;;;;3.02;81.30;93645.63;1815890;79;21068;-54
2020/12/13 07:03:26;;;;;;;58.83;35.55;;;;;;;3.07;81.77;93645.86;1786371;79;21115;-54
2020/12/13 07:05:57;;;;;;;41.70;28.75;;;;;;;3.13;81.41;93643.39;1815906;78;21115;-56
2020/12/13 07:08:26;;;;;;;32.13;22.22;;;;;;;3.14;81.56;93646.28;1815906;79;21523;-55
2020/12/13 07:10:55;;;;;;;35.70;24.50;;;;;;;3.15;81.47;93643.73;1805010;78;22283;-54
2020/12/13 07:13:25;;;;;;;27.10;19.55;;;;;;;3.14;81.63;93644.92;1754531;80;21122;-55
2020/12/13 07:16:06;;;;;;;29.23;20.90;;;;;;;3.19;81.76;93649.25;1755001;80;21087;-54
2020/12/13 07:18:32;;;;;;;25.70;19.90;;;;;;;3.22;81.74;93647.64;1780055;80;21099;-54
2020/12/13 07:21:00;;;;;;;30.05;21.62;;;;;;;3.28;81.81;93650.00;1780156;80;21500;-54
2020/12/13 07:23:28;;;;;;;34.67;23.45;;;;;;;3.31;81.79;93660.80;1780132;80;21459;-55
2020/12/13 07:25:57;;;;;;;41.48;23.42;;;;;;;3.38;81.73;93651.70;1780073;80;21074;-55
2020/12/13 07:28:27;;;;;;;32.20;22.15;;;;;;;3.39;81.50;93654.58;1780139;80;21082;-55
2020/12/13 07:30:56;;;;;;;35.50;23.40;;;;;;;3.38;81.40;93651.09;1780094;79;21150;-54
2020/12/13 07:33:24;;;;;;;71.07;38.53;;;;;;;3.39;81.55;93650.51;1780122;80;21566;-54
2020/12/13 07:35:53;;;;;;;185.32;75.30;;;;;;;3.46;81.64;93654.39;1780132;80;21318;-55
2020/12/13 07:38:22;;;;;;;527.83;195.18;;;;;;;3.53;81.58;93651.64;1780148;80;21941;-54
2020/12/13 07:40:52;;;;;;;243.75;97.10;;;;;;;3.56;81.27;93650.03;1780077;79;21150;-56
2020/12/13 07:43:21;;;;;;;151.42;62.38;;;;;;;3.63;81.53;93649.25;1780087;80;21437;-55
2020/12/13 07:45:49;;;;;;;62.85;37.90;;;;;;;3.74;81.24;93651.67;1780235;80;21484;-57
2020/12/13 07:48:18;;;;;;;51.05;34.13;;;;;;;3.77;81.11;93654.31;1780133;80;21365;-54
2020/12/13 07:50:47;;;;;;;49.98;33.78;;;;;;;3.84;81.07;93648.66;1780030;80;21508;-54
2020/12/13 07:53:24;;;;;;;92.25;54.50;;;;;;;3.95;80.93;93653.22;1780132;80;21110;-55
2020/12/13 07:55:53;;;;;;;113.03;69.90;;;;;;;4.02;80.78;93658.45;1780219;80;21574;-55
2020/12/13 07:58:22;;;;;;;83.90;52.03;;;;;;;4.05;80.79;93660.92;1780121;80;21102;-55
2020/12/13 08:00:51;;;;;;;55.95;37.65;;;;;;;4.11;80.63;93658.59;1780107;80;21566;-55
2020/12/13 08:03:21;;;;;;;48.98;32.83;;;;;;;4.13;80.19;93668.45;1780083;80;21527;-55
2020/12/13 08:05:49;;;;;;;41.83;31.55;;;;;;;4.14;80.21;93663.75;1780111;80;21464;-56
2020/12/13 08:08:18;;;;;;;43.78;32.00;;;;;;;4.19;79.79;93665.94;1780091;80;21635;-56
2020/12/13 08:10:47;;;;;;;48.48;33.08;;;;;;;4.17;79.63;93666.97;1779968;78;21055;-55
2020/12/13 08:13:16;;;;;;;49.45;32.98;;;;;;;4.10;79.45;93673.40;1780142;80;21197;-56
2020/12/13 08:15:44;;;;;;;46.50;31.75;;;;;;;4.09;79.68;93676.54;1780113;80;21138;-55
2020/12/13 08:18:15;;;;;;;42.33;29.85;;;;;;;4.13;79.68;93672.53;1780111;80;21578;-56
2020/12/13 08:20:47;;;;;;;53.52;35.33;;;;;;;4.21;79.40;93682.63;1780082;80;21134;-56
2020/12/13 08:23:15;;;;;;;47.83;33.08;;;;;;;4.19;78.99;93680.91;1780253;80;21127;-54
2020/12/13 08:25:44;;;;;;;40.17;27.77;;;;;;;4.18;79.15;93680.16;1780073;79;21344;-56
2020/12/13 08:28:13;;;;;;;54.63;35.83;;;;;;;4.25;79.15;93683.28;1779947;80;22005;-56
2020/12/13 08:30:42;;;;;;;52.80;35.23;;;;;;;4.26;79.11;93687.53;1780053;80;21154;-56
2020/12/13 08:33:11;;;;;;;57.35;36.75;;;;;;;4.23;78.93;93687.03;1780132;80;21091;-55
2020/12/13 08:35:39;;;;;;;64.65;42.08;;;;;;;4.25;79.06;93690.08;1780112;80;21051;-55
2020/12/13 08:38:11;;;;;;;56.30;36.60;;;;;;;4.31;78.95;93696.51;1780097;80;21156;-56
2020/12/13 08:40:45;;;;;;;42.62;29.25;;;;;;;4.37;78.83;93705.08;1780155;80;21500;-56
2020/12/13 08:43:20;;;;;;;44.10;29.72;;;;;;;4.43;78.59;93702.59;1780089;80;21114;-57
2020/12/13 08:45:53;;;;;;;37.65;26.30;;;;;;;4.39;78.47;93705.41;1755586;80;21185;-56
2020/12/13 08:48:27;;;;;;;33.20;24.00;;;;;;;4.34;78.48;93699.14;1780281;80;21611;-58
2020/12/13 08:51:11;;;;;;;38.42;25.17;;;;;;;4.29;78.49;93702.41;1779639;80;21365;-56
2020/12/13 08:53:39;;;;;;;34.78;23.18;;;;;;;4.23;78.42;93702.75;1779933;79;21079;-54
2020/12/13 08:58:52;;;;;;;41.30;26.52;;;;;;;4.22;78.44;93693.67;1873580;75;22759;-55
2020/12/13 09:01:24;;;;;;;37.42;26.02;;;;;;;4.17;78.53;93700.41;1841510;77;21482;-58
2020/12/13 09:03:51;;;;;;;38.98;22.65;;;;;;;4.22;78.48;93707.28;1841587;78;21355;-57
2020/12/13 09:06:31;;;;;;;54.03;36.50;;;;;;;4.26;78.40;93713.38;1841499;78;20915;-55
2020/12/13 09:09:13;;;;;;;32.45;20.62;;;;;;;4.22;78.26;93710.75;1841572;77;20943;-57
2020/12/13 09:11:42;;;;;;;39.78;27.77;;;;;;;4.17;77.86;93714.59;1840268;77;21654;-56
2020/12/13 09:14:11;;;;;;;42.93;28.25;;;;;;;4.04;77.83;93723.34;1840757;77;21493;-59
2020/12/13 09:16:41;;;;;;;30.05;21.12;;;;;;;3.99;78.03;93715.09;1850463;76;21166;-55
2020/12/13 09:19:13;;;;;;;33.90;22.32;;;;;;;3.99;77.94;93715.67;1771667;78;21597;-57
2020/12/13 09:21:51;;;;;;;25.45;17.27;;;;;;;3.97;77.81;93718.84;1840808;78;21133;-58
2020/12/13 09:24:21;;;;;;;26.82;19.45;;;;;;;3.92;77.99;93713.94;1840626;78;21053;-56
2020/12/13 09:27:09;;;;;;;36.68;22.85;;;;;;;3.90;78.19;93710.86;1840532;78;21121;-55
2020/12/13 09:29:39;;;;;;;38.17;25.23;;;;;;;3.93;78.12;93714.69;1817738;78;21352;-57
2020/12/13 09:32:07;;;;;;;44.83;28.47;;;;;;;3.93;78.12;93718.19;1807633;79;21236;-58
2020/12/13 09:34:38;;;;;;;42.73;26.73;;;;;;;3.93;78.20;93716.82;1807648;79;21113;-60
2020/12/13 09:37:11;;;;;;;42.95;26.85;;;;;;;3.93;78.26;93714.69;1807649;79;21200;-55
2020/12/13 09:39:40;;;;;;;36.85;23.25;;;;;;;3.95;78.50;93713.07;1807765;79;21588;-56
2020/12/13 09:42:10;;;;;;;71.82;42.67;;;;;;;4.04;78.33;93705.65;1807392;78;21197;-56
2020/12/13 09:44:38;;;;;;;57.62;34.48;;;;;;;4.12;78.32;93708.33;1807616;78;21077;-56
2020/12/13 09:47:07;;;;;;;50.23;30.40;;;;;;;4.22;78.16;93714.09;1807717;79;21161;-58
2020/12/13 09:49:37;;;;;;;45.92;28.17;;;;;;;4.26;78.07;93710.66;1807716;79;21172;-56
2020/12/13 09:52:06;;;;;;;39.03;23.38;;;;;;;4.35;78.01;93705.33;1805895;78;21171;-55
2020/12/13 09:54:35;;;;;;;37.25;24.67;;;;;;;4.41;77.80;93704.38;1811026;78;21365;-58
2020/12/13 09:57:04;;;;;;;34.27;22.07;;;;;;;4.46;77.62;93702.47;1796515;79;21276;-55
2020/12/13 09:59:32;;;;;;;31.02;17.82;;;;;;;4.48;77.50;93700.09;1796880;79;21174;-57
2020/12/13 10:02:01;;;;;;;27.50;16.15;;;;;;;4.48;77.41;93703.41;1796758;79;21218;-57
2020/12/13 10:04:29;;;;;;;19.70;14.10;;;;;;;4.47;77.41;93697.80;1796840;79;21530;-56
2020/12/13 10:09:45;;;;;;;14.73;12.50;;;;;;;4.59;77.16;93695.70;1798604;78;21290;-54
2020/12/13 10:12:13;;;;;;;19.98;15.08;;;;;;;4.67;77.10;93686.89;1839621;77;21646;-55
2020/12/13 10:14:42;;;;;;;20.57;15.45;;;;;;;4.77;76.87;93685.78;1840062;78;21045;-55
2020/12/13 10:17:11;;;;;;;17.77;14.10;;;;;;;4.82;76.55;93686.59;1803233;78;21199;-55
2020/12/13 10:19:41;;;;;;;15.30;12.05;;;;;;;4.88;76.56;93688.95;1796075;78;21379;-58
2020/12/13 10:22:10;;;;;;;13.72;11.30;;;;;;;4.89;76.25;93689.12;1800821;78;21115;-57
2020/12/13 10:24:38;;;;;;;12.15;10.90;;;;;;;4.86;76.07;93692.72;1785681;77;21664;-57
2020/12/13 10:27:07;;;;;;;15.00;12.33;;;;;;;4.79;76.07;93687.47;1774879;80;21140;-55
2020/12/13 10:29:36;;;;;;;17.67;14.20;;;;;;;4.76;76.28;93684.88;1775327;80;21573;-56
2020/12/13 10:32:04;;;;;;;20.70;14.13;;;;;;;4.78;76.33;93686.56;1775106;79;21204;-55
2020/12/13 10:34:33;;;;;;;18.92;13.62;;;;;;;4.74;76.50;93683.16;1775145;80;21172;-56
2020/12/13 10:37:01;;;;;;;17.73;13.13;;;;;;;4.71;76.64;93682.09;1775251;80;21530;-56
2020/12/13 10:39:29;;;;;;;15.60;13.30;;;;;;;4.67;76.75;93678.72;1775089;80;21089;-56
2020/12/13 10:41:58;;;;;;;16.12;12.05;;;;;;;4.67;76.90;93673.27;1774903;80;21188;-57
2020/12/13 10:44:27;;;;;;;20.80;16.15;;;;;;;4.74;77.11;93677.71;1775098;80;21213;-55
2020/12/13 10:46:55;;;;;;;21.45;17.07;;;;;;;4.78;77.10;93681.86;1774960;80;21667;-55
2020/12/13 10:49:24;;;;;;;29.00;18.23;;;;;;;4.87;77.08;93686.07;1774983;80;21146;-58
2020/12/13 10:51:54;;;;;;;33.78;21.02;;;;;;;4.93;76.69;93680.23;1774983;80;21221;-56
2020/12/13 10:54:22;;;;;;;30.92;20.12;;;;;;;4.92;76.66;93684.16;1775070;80;21061;-57
2020/12/13 10:56:51;;;;;;;21.90;15.72;;;;;;;4.92;76.88;93684.16;1781740;78;22750;-54
2020/12/13 10:59:19;;;;;;;16.30;12.95;;;;;;;5.00;76.50;93681.36;1814798;77;21106;-57
2020/12/13 11:01:48;;;;;;;22.22;16.57;;;;;;;5.00;76.27;93682.72;1806693;78;21081;-56
2020/12/13 11:04:19;;;;;;;21.60;15.95;;;;;;;4.97;76.37;93680.13;1800314;78;21157;-58
2020/12/13 11:06:47;;;;;;;22.52;15.72;;;;;;;4.95;76.28;93680.55;1796268;79;21055;-57
2020/12/13 11:09:16;;;;;;;28.32;18.62;;;;;;;4.96;76.46;93680.72;1799521;78;22340;-56
2020/12/13 11:11:44;;;;;;;60.28;30.62;;;;;;;5.02;76.49;93685.02;1808157;78;21175;-58
2020/12/13 11:14:12;;;;;;;51.28;27.20;;;;;;;5.07;76.44;93681.16;1816798;77;21607;-55
2020/12/13 11:16:47;;;;;;;30.27;16.62;;;;;;;5.15;76.33;93689.87;1803883;78;21173;-55
2020/12/13 11:19:18;;;;;;;32.38;17.80;;;;;;;5.21;76.08;93683.44;1806929;79;21168;-59
2020/12/13 11:21:47;;;;;;;33.00;21.35;;;;;;;5.15;75.99;93684.42;1806749;79;21423;-61
2020/12/13 11:24:16;;;;;;;40.33;21.37;;;;;;;5.09;76.02;93691.02;1823065;77;21276;-57
2020/12/13 11:26:48;;;;;;;35.25;22.13;;;;;;;5.07;76.13;93690.69;1839496;78;21167;-55
2020/12/13 11:29:16;;;;;;;28.67;18.82;;;;;;;5.07;76.15;93697.50;1839972;78;21144;-59
2020/12/13 11:31:46;;;;;;;27.32;17.12;;;;;;;5.12;75.90;93692.86;1839622;78;21122;-56
2020/12/13 11:34:15;;;;;;;29.02;17.45;;;;;;;5.13;75.82;93694.38;1839710;78;21190;-57
2020/12/13 11:36:43;;;;;;;28.70;19.23;;;;;;;5.09;75.61;93692.38;1839960;78;22350;-56
2020/12/13 11:39:12;;;;;;;25.15;19.15;;;;;;;5.12;75.44;93689.39;1839576;78;21119;-55
2020/12/13 11:41:41;;;;;;;22.30;16.67;;;;;;;5.16;75.16;93692.14;1839577;78;21100;-57
2020/12/13 11:44:10;;;;;;;21.45;16.07;;;;;;;5.12;74.88;93694.22;1833587;77;21104;-56
2020/12/13 11:46:40;;;;;;;21.42;15.55;;;;;;;5.07;75.13;93692.05;1831557;78;21240;-60
2020/12/13 11:49:09;;;;;;;19.37;14.18;;;;;;;5.08;75.09;93696.30;1754555;80;21214;-56